createdAt,value
2022-11-30T00:03:02.722Z,10.85
2022-11-30T00:06:07.360Z,10.90
2022-11-30T00:09:09.730Z,11.18
2022-11-30T00:12:11.928Z,10.07
2022-11-30T00:15:17.155Z,10.73
2022-11-30T00:18:19.125Z,9.65
2022-11-30T00:21:21.376Z,8.80
2022-11-30T00:24:24.543Z,9.82
2022-11-30T00:27:28.217Z,9.90
2022-11-30T00:30:30.899Z,9.45
2022-11-30T00:33:35.599Z,9.95
2022-11-30T00:36:37.815Z,10.25
2022-11-30T00:39:39.945Z,10.02
2022-11-30T00:42:42.955Z,10.43
2022-11-30T00:45:45.166Z,10.27
2022-11-30T00:48:47.435Z,11.38
2022-11-30T00:51:49.639Z,10.45
2022-11-30T00:54:51.778Z,9.30
2022-11-30T00:57:54.146Z,10.38
2022-11-30T01:00:56.357Z,10.13
2022-11-30T01:03:58.773Z,11.10
2022-11-30T01:07:01.469Z,10.68
2022-11-30T01:10:04.092Z,9.48
2022-11-30T01:13:06.220Z,10.18
2022-11-30T01:16:10.564Z,9.70
2022-11-30T01:19:12.772Z,11.02
2022-11-30T01:22:14.817Z,10.80
2022-11-30T01:25:16.887Z,11.02
2022-11-30T01:28:19.267Z,10.07
2022-11-30T01:31:23.759Z,9.90
2022-11-30T01:34:25.941Z,9.40
2022-11-30T01:37:30.631Z,9.32
2022-11-30T01:40:32.644Z,10.30
2022-11-30T01:43:49.954Z,9.70
2022-11-30T01:47:05.636Z,10.13
2022-11-30T01:50:15.539Z,9.77
2022-11-30T01:53:17.573Z,10.02
2022-11-30T01:56:19.744Z,10.30
2022-11-30T01:59:24.152Z,9.90
2022-11-30T02:02:40.503Z,8.88
2022-11-30T02:05:44.132Z,9.85
2022-11-30T02:08:46.535Z,9.63
2022-11-30T02:11:49.752Z,8.82
2022-11-30T02:14:57.877Z,9.50
2022-11-30T02:18:12.235Z,9.27
2022-11-30T02:21:15.612Z,8.57
2022-11-30T02:24:54.730Z,8.23
2022-11-30T02:28:03.011Z,9.20
2022-11-30T02:31:08.955Z,10.68
2022-11-30T02:34:15.733Z,9.43
2022-11-30T02:37:19.478Z,9.38
2022-11-30T02:40:21.659Z,8.48
2022-11-30T02:43:26.691Z,7.82
2022-11-30T02:46:36.310Z,8.93
2022-11-30T02:50:07.644Z,8.40
2022-11-30T02:53:14.817Z,8.50
2022-11-30T02:56:17.963Z,8.15
2022-11-30T02:59:20.997Z,8.30
2022-11-30T03:02:23.122Z,8.68
2022-11-30T03:05:26.171Z,7.65
2022-11-30T03:08:28.276Z,8.15
2022-11-30T03:11:31.413Z,9.10
2022-11-30T03:14:33.404Z,8.48
2022-11-30T03:17:36.388Z,8.05
2022-11-30T03:20:43.838Z,7.22
2022-11-30T03:23:46.141Z,8.00
2022-11-30T03:26:48.191Z,7.63
2022-11-30T03:29:50.239Z,7.38
2022-11-30T03:32:52.855Z,7.10
2022-11-30T03:36:09.437Z,6.32
2022-11-30T03:39:11.594Z,7.10
2022-11-30T03:42:13.625Z,6.15
2022-11-30T03:45:15.819Z,6.95
2022-11-30T03:48:17.831Z,6.45
2022-11-30T03:51:20.171Z,6.20
2022-11-30T03:54:22.449Z,6.82
2022-11-30T03:57:27.323Z,5.97
2022-11-30T04:00:29.363Z,6.85
2022-11-30T04:03:31.487Z,7.10
2022-11-30T04:06:34.543Z,5.82
2022-11-30T04:09:36.476Z,6.50
2022-11-30T04:12:38.561Z,6.82
2022-11-30T04:15:40.670Z,6.28
2022-11-30T04:18:42.707Z,6.80
2022-11-30T04:21:44.847Z,5.88
2022-11-30T04:24:47.179Z,5.35
2022-11-30T04:27:49.439Z,5.72
2022-11-30T04:30:52.403Z,5.32
2022-11-30T04:33:54.683Z,5.80
2022-11-30T04:37:00.226Z,5.93
2022-11-30T04:40:02.907Z,6.88
2022-11-30T04:43:07.155Z,6.20
2022-11-30T04:46:09.295Z,5.43
2022-11-30T04:49:11.420Z,6.35
2022-11-30T04:52:13.697Z,4.90
2022-11-30T04:55:19.439Z,5.60
2022-11-30T04:58:21.708Z,6.38
2022-11-30T05:01:23.868Z,6.28
2022-11-30T05:04:26.161Z,4.68
2022-11-30T05:07:28.277Z,6.05
2022-11-30T05:10:32.175Z,5.90
2022-11-30T05:13:34.984Z,5.60
2022-11-30T05:16:37.022Z,6.57
2022-11-30T05:19:40.090Z,5.18
2022-11-30T05:22:42.185Z,5.50
2022-11-30T05:25:44.503Z,3.92
2022-11-30T05:28:46.524Z,5.32
2022-11-30T05:31:48.797Z,6.10
2022-11-30T05:34:52.016Z,4.95
2022-11-30T05:37:54.724Z,5.80
2022-11-30T05:41:01.719Z,4.80
2022-11-30T05:44:05.251Z,5.37
2022-11-30T05:47:07.409Z,6.32
2022-11-30T05:50:09.830Z,6.20
2022-11-30T05:53:11.924Z,5.03
2022-11-30T05:56:17.578Z,5.18
2022-11-30T05:59:19.577Z,6.30
2022-11-30T06:02:27.754Z,7.07
2022-11-30T06:05:30.401Z,6.25
2022-11-30T06:08:32.500Z,5.72
2022-11-30T06:11:35.744Z,6.45
2022-11-30T06:14:38.053Z,7.00
2022-11-30T06:17:40.241Z,7.25
2022-11-30T06:20:43.974Z,7.47
2022-11-30T06:23:46.151Z,6.07
2022-11-30T06:26:48.599Z,6.13
2022-11-30T06:29:51.301Z,3.60
2022-11-30T06:32:53.945Z,4.13
2022-11-30T06:35:56.627Z,4.00
2022-11-30T06:38:59.085Z,2.97
2022-11-30T06:42:01.255Z,5.28
2022-11-30T06:45:04.244Z,5.47
2022-11-30T06:48:06.447Z,6.70
2022-11-30T06:51:09.638Z,6.20
2022-11-30T06:54:11.932Z,6.90
2022-11-30T06:57:14.253Z,5.97
2022-11-30T07:00:17.120Z,6.82
2022-11-30T07:03:19.336Z,11.77
2022-11-30T07:06:21.380Z,8.90
2022-11-30T07:09:23.454Z,23.73
2022-11-30T07:12:26.284Z,9.77
2022-11-30T07:15:28.285Z,7.15
2022-11-30T07:18:32.850Z,6.10
2022-11-30T07:21:35.153Z,6.60
2022-11-30T07:25:06.592Z,7.13
2022-11-30T07:28:09.122Z,5.03
2022-11-30T07:31:22.349Z,5.13
2022-11-30T07:34:26.217Z,4.47
2022-11-30T07:37:28.462Z,4.57
2022-11-30T07:40:30.675Z,5.63
2022-11-30T07:43:33.546Z,6.43
2022-11-30T07:46:40.797Z,5.68
2022-11-30T07:49:43.642Z,6.00
2022-11-30T07:52:45.630Z,6.82
2022-11-30T07:55:49.672Z,5.25
2022-11-30T07:59:00.268Z,6.32
2022-11-30T08:02:03.047Z,4.50
2022-11-30T08:05:05.592Z,5.20
2022-11-30T08:08:07.929Z,6.05
2022-11-30T08:11:12.514Z,6.07
2022-11-30T08:14:14.808Z,5.55
2022-11-30T08:17:16.986Z,5.63
2022-11-30T08:20:21.337Z,6.32
2022-11-30T08:23:25.943Z,6.35
2022-11-30T08:26:30.610Z,6.07
2022-11-30T08:29:38.087Z,6.18
2022-11-30T08:32:43.191Z,7.57
2022-11-30T08:35:48.742Z,7.03
2022-11-30T08:38:52.440Z,6.70
2022-11-30T08:41:58.855Z,6.72
2022-11-30T08:45:01.217Z,6.40
2022-11-30T08:48:03.534Z,6.50
2022-11-30T08:51:08.974Z,6.80
2022-11-30T08:54:11.274Z,5.80
2022-11-30T08:57:16.115Z,7.15
2022-11-30T09:00:20.320Z,7.45
2022-11-30T09:03:22.370Z,7.95
2022-11-30T09:06:30.939Z,7.50
2022-11-30T09:16:30.008Z,5.55
2022-11-30T09:20:54.841Z,6.63
2022-11-30T09:23:57.789Z,7.32
2022-11-30T09:27:05.276Z,7.50
2022-11-30T09:30:07.975Z,7.70
2022-11-30T09:33:10.134Z,8.30
2022-11-30T09:36:15.242Z,8.20
2022-11-30T09:39:17.288Z,8.00
2022-11-30T09:42:27.082Z,7.38
2022-11-30T09:45:31.913Z,7.60
2022-11-30T09:48:43.282Z,6.93
2022-11-30T09:51:49.918Z,6.95
2022-11-30T09:54:52.078Z,6.30
2022-11-30T09:58:02.360Z,6.82
2022-11-30T10:01:10.114Z,6.15
2022-11-30T10:04:23.429Z,5.55
2022-11-30T10:07:49.599Z,5.32
2022-11-30T10:11:00.995Z,6.57
2022-11-30T10:14:14.032Z,6.18
2022-11-30T10:17:54.826Z,6.32
2022-11-30T10:21:14.410Z,6.13
2022-11-30T10:24:44.191Z,5.72
2022-11-30T10:30:49.500Z,6.28
2022-11-30T10:33:55.569Z,5.32
2022-11-30T10:37:14.342Z,5.63
2022-11-30T10:40:29.083Z,6.72
2022-11-30T10:43:43.689Z,6.20
2022-11-30T10:46:59.209Z,6.10
2022-11-30T10:50:01.295Z,4.90
2022-11-30T10:53:03.520Z,4.53
2022-11-30T10:56:08.369Z,5.35
2022-11-30T10:59:53.404Z,4.60
2022-11-30T11:02:55.629Z,4.68
2022-11-30T11:06:18.174Z,6.38
2022-11-30T11:09:37.261Z,5.85
2022-11-30T11:15:57.870Z,6.40
2022-11-30T11:18:59.941Z,5.73
2022-11-30T11:22:14.947Z,5.20
2022-11-30T11:25:22.806Z,4.82
2022-11-30T11:28:25.976Z,6.47
2022-11-30T11:31:38.927Z,5.32
2022-11-30T11:34:41.114Z,5.45
2022-11-30T11:37:51.724Z,5.43
2022-11-30T11:41:07.270Z,5.00
2022-11-30T11:44:09.195Z,4.68
2022-11-30T11:47:24.899Z,6.10
2022-11-30T11:54:02.904Z,5.90
2022-11-30T11:57:19.052Z,4.97
2022-11-30T12:00:25.042Z,6.07
2022-11-30T12:03:53.885Z,6.13
2022-11-30T12:06:58.979Z,6.47
2022-11-30T12:13:49.398Z,6.60
2022-11-30T12:17:34.921Z,5.93
2022-11-30T12:20:50.282Z,6.95
2022-11-30T12:24:10.343Z,6.03
2022-11-30T12:27:50.483Z,5.40
2022-11-30T12:31:15.054Z,7.78
2022-11-30T12:34:26.829Z,6.00
2022-11-30T12:37:31.529Z,6.47
2022-11-30T12:40:38.683Z,5.85
2022-11-30T12:44:13.303Z,5.93
2022-11-30T12:47:37.195Z,5.50
2022-11-30T12:50:59.768Z,6.30
2022-11-30T12:54:14.746Z,7.43
2022-11-30T12:57:43.749Z,6.70
2022-11-30T13:01:30.477Z,6.72
2022-11-30T13:04:44.191Z,8.00
2022-11-30T13:07:54.810Z,7.65
2022-11-30T13:11:01.700Z,7.95
2022-11-30T13:14:10.064Z,6.90
2022-11-30T13:17:19.609Z,7.65
2022-11-30T13:20:45.367Z,8.45
2022-11-30T13:23:53.019Z,6.95
2022-11-30T13:27:18.385Z,6.67
2022-11-30T13:30:31.965Z,6.88
2022-11-30T13:33:33.911Z,6.10
2022-11-30T13:36:44.841Z,7.07
2022-11-30T13:39:50.579Z,6.57
2022-11-30T13:42:56.336Z,7.30
2022-11-30T13:46:05.938Z,6.72
2022-11-30T13:49:22.279Z,7.15
2022-11-30T13:52:58.552Z,6.18
2022-11-30T13:56:07.835Z,6.40
2022-11-30T13:59:24.865Z,7.30
2022-11-30T14:05:57.627Z,5.65
2022-11-30T14:08:59.758Z,6.40
2022-11-30T14:12:34.734Z,7.97
2022-11-30T14:15:39.477Z,9.55
2022-11-30T14:18:46.935Z,7.90
2022-11-30T14:21:49.419Z,6.78
2022-11-30T14:24:52.904Z,7.03
2022-11-30T14:27:57.099Z,6.07
2022-11-30T14:31:00.246Z,6.57
2022-11-30T14:34:20.577Z,6.55
2022-11-30T14:37:23.587Z,6.20
2022-11-30T14:40:29.901Z,7.90
2022-11-30T14:43:32.086Z,7.50
2022-11-30T14:46:44.605Z,7.05
2022-11-30T14:49:52.186Z,8.30
2022-11-30T14:53:26.594Z,6.47
2022-11-30T14:56:41.055Z,7.28
2022-11-30T15:00:03.876Z,6.82
2022-11-30T15:03:18.767Z,7.30
2022-11-30T15:06:27.137Z,5.88
2022-11-30T15:09:32.647Z,5.85
2022-11-30T15:12:38.230Z,6.40
2022-11-30T15:15:50.615Z,6.30
2022-11-30T15:18:54.727Z,7.35
2022-11-30T15:21:58.465Z,6.40
2022-11-30T15:25:02.057Z,6.88
2022-11-30T15:28:07.522Z,5.82
2022-11-30T15:31:15.974Z,7.55
2022-11-30T15:37:29.761Z,6.65
2022-11-30T15:40:35.235Z,7.82
2022-11-30T15:43:40.320Z,8.90
2022-11-30T15:47:09.209Z,7.93
2022-11-30T15:50:32.575Z,6.45
2022-11-30T15:53:53.248Z,7.35
2022-11-30T15:56:58.923Z,6.35
2022-11-30T16:00:24.151Z,5.75
2022-11-30T16:03:26.143Z,6.97
2022-11-30T16:07:00.580Z,7.60
2022-11-30T16:10:35.454Z,7.72
2022-11-30T16:13:40.485Z,8.10
2022-11-30T16:16:43.654Z,7.97
2022-11-30T16:19:48.356Z,7.95
2022-11-30T16:22:51.106Z,7.40
2022-11-30T16:25:53.983Z,7.72
2022-11-30T16:28:58.430Z,8.85
2022-11-30T16:32:00.686Z,7.20
2022-11-30T16:35:03.303Z,8.10
2022-11-30T16:38:06.584Z,6.57
2022-11-30T16:41:23.729Z,7.82
2022-11-30T16:44:26.264Z,8.38
2022-11-30T16:47:28.208Z,6.50
2022-11-30T16:50:34.416Z,7.35
2022-11-30T16:53:41.479Z,6.63
2022-11-30T16:56:46.362Z,7.05
2022-11-30T16:59:48.502Z,7.75
2022-11-30T17:06:35.423Z,7.85
2022-11-30T17:09:41.311Z,7.82
2022-11-30T17:12:55.383Z,7.95
2022-11-30T17:16:06.647Z,6.43
2022-11-30T17:19:10.515Z,7.63
2022-11-30T17:22:23.288Z,7.63
2022-11-30T17:25:27.460Z,8.60
2022-11-30T17:28:31.729Z,7.00
2022-11-30T17:31:33.890Z,8.00
2022-11-30T17:34:36.691Z,7.95
2022-11-30T17:37:39.978Z,7.85
2022-11-30T17:40:44.347Z,9.13
2022-11-30T17:43:53.997Z,7.50
2022-11-30T17:46:56.430Z,7.72
2022-11-30T17:49:59.937Z,8.50
2022-11-30T17:53:02.275Z,8.52
2022-11-30T17:56:18.473Z,7.70
2022-11-30T17:59:20.371Z,8.98
2022-11-30T18:02:27.007Z,6.82
2022-11-30T18:05:32.392Z,6.65
2022-11-30T18:08:35.332Z,6.40
2022-11-30T18:11:37.402Z,7.05
2022-11-30T18:14:40.102Z,6.25
2022-11-30T18:17:42.911Z,7.18
2022-11-30T18:20:44.903Z,6.47
2022-11-30T18:23:50.046Z,6.28
2022-11-30T18:26:52.914Z,5.68
2022-11-30T18:29:55.157Z,5.25
2022-11-30T18:32:58.074Z,6.22
2022-11-30T18:36:01.482Z,5.63
2022-11-30T18:39:03.863Z,6.10
2022-11-30T18:42:06.375Z,6.43
2022-11-30T18:45:08.842Z,5.68
2022-11-30T18:48:12.524Z,4.63
2022-11-30T18:51:20.658Z,4.97
2022-11-30T18:54:25.474Z,5.60
2022-11-30T18:57:28.650Z,6.10
2022-11-30T19:00:33.929Z,5.05
2022-11-30T19:03:37.853Z,6.07
2022-11-30T19:06:43.920Z,7.03
2022-11-30T19:09:50.915Z,6.63
2022-11-30T19:13:18.735Z,5.97
2022-11-30T19:16:21.287Z,5.35
2022-11-30T19:19:23.996Z,6.97
2022-11-30T19:22:30.290Z,6.57
2022-11-30T19:25:33.089Z,8.38
2022-11-30T19:28:37.386Z,6.60
2022-11-30T19:31:40.061Z,7.28
2022-11-30T19:34:43.005Z,6.25
2022-11-30T19:37:46.037Z,8.50
2022-11-30T19:40:48.239Z,7.88
2022-11-30T19:44:03.144Z,7.80
2022-11-30T19:47:07.967Z,8.32
2022-11-30T19:50:10.180Z,7.53
2022-11-30T19:53:16.263Z,8.43
2022-11-30T19:56:19.307Z,7.28
2022-11-30T19:59:22.385Z,8.32
2022-11-30T20:02:25.403Z,8.63
2022-11-30T20:05:30.703Z,8.60
2022-11-30T20:08:32.906Z,8.65
2022-11-30T20:11:40.630Z,7.85
2022-11-30T20:14:42.724Z,8.75
2022-11-30T20:17:45.890Z,7.10
2022-11-30T20:20:49.885Z,8.50
2022-11-30T20:23:57.994Z,8.45
2022-11-30T20:27:01.281Z,8.68
2022-11-30T20:30:05.535Z,8.77
2022-11-30T20:39:46.248Z,10.23
2022-11-30T20:42:48.752Z,8.60
2022-11-30T20:45:52.532Z,9.05
2022-11-30T20:48:57.549Z,7.93
2022-11-30T20:55:40.971Z,8.38
2022-11-30T20:58:52.105Z,7.75
2022-11-30T21:02:04.296Z,8.88
2022-11-30T21:05:14.728Z,8.52
2022-11-30T21:08:20.194Z,7.68
2022-11-30T21:11:27.713Z,7.88
2022-11-30T21:16:16.362Z,8.18
2022-11-30T21:18:56.500Z,8.45
2022-11-30T21:21:59.877Z,7.75
2022-11-30T21:25:05.013Z,8.95
2022-11-30T21:28:08.362Z,8.70
2022-11-30T21:31:12.700Z,9.27
2022-11-30T21:34:17.943Z,8.13
2022-11-30T21:37:22.537Z,9.00
2022-11-30T21:40:24.544Z,8.75
2022-11-30T21:43:29.779Z,8.88
2022-11-30T21:46:33.299Z,7.95
2022-11-30T21:49:38.989Z,8.05
2022-11-30T21:52:42.264Z,8.75
2022-11-30T21:55:44.353Z,8.90
2022-11-30T21:58:49.942Z,9.18
2022-11-30T22:01:52.010Z,8.55
2022-11-30T22:04:54.026Z,9.93
2022-11-30T22:07:56.569Z,7.85
2022-11-30T22:11:03.641Z,9.27
2022-11-30T22:14:08.022Z,14.13
2022-11-30T22:17:12.830Z,10.27
2022-11-30T22:20:18.682Z,8.80
2022-11-30T22:23:30.491Z,8.48
2022-11-30T22:26:38.144Z,8.00
2022-11-30T22:29:40.245Z,8.60
2022-11-30T22:32:49.978Z,9.05
2022-11-30T22:35:54.459Z,8.65
2022-11-30T22:39:00.318Z,7.85
2022-11-30T22:42:02.364Z,7.95
2022-11-30T22:45:07.271Z,9.25
2022-11-30T22:48:10.842Z,7.78
2022-11-30T22:51:15.604Z,7.90
2022-11-30T22:54:21.066Z,7.97
2022-11-30T22:57:23.604Z,7.82
2022-11-30T23:00:25.965Z,8.38
2022-11-30T23:03:28.374Z,8.32
2022-11-30T23:06:30.872Z,7.60
2022-11-30T23:09:32.953Z,10.25
2022-11-30T23:12:58.632Z,8.05
2022-11-30T23:16:00.408Z,8.90
2022-11-30T23:19:06.758Z,8.70
2022-11-30T23:22:08.916Z,8.30
2022-11-30T23:25:11.085Z,8.90
2022-11-30T23:28:14.046Z,8.20
2022-11-30T23:31:33.688Z,8.38
2022-11-30T23:34:38.889Z,7.45
2022-11-30T23:37:40.911Z,8.63
2022-11-30T23:40:42.999Z,7.63
2022-11-30T23:43:47.612Z,7.78
2022-11-30T23:46:53.706Z,7.50
2022-11-30T23:49:56.153Z,8.45
2022-11-30T23:52:58.271Z,7.97
2022-11-30T23:56:09.350Z,8.98
2022-11-30T23:59:11.527Z,9.25
